Time;durP1;ratioP1;P1;durP2;ratioP2;P2;SDS_P1;SDS_P2;PMS_P1;PMS_P2;Temp;Humidity;BMP_temperature;BMP_pressure;BME280_temperature;BME280_humidity;BME280_pressure;Samples;Min_cycle;Max_cycle;Signal;HPM_P1;HPM_P2
2021/08/22 00:04:57;;;;;;;10.70;7.67;;;;;;;17.80;69.86;101043.08;4987788;59;21168;-83
2021/08/22 00:10:04;;;;;;;6.10;4.10;;;;;;;17.76;70.15;101039.02;4970308;59;21508;-80
2021/08/22 00:15:11;;;;;;;18.60;12.33;;;;;;;17.71;70.18;101030.63;4970369;59;22034;-81
2021/08/22 00:20:20;;;;;;;98.30;57.83;;;;;;;17.61;70.08;101035.16;4970746;59;21173;-81
2021/08/22 00:25:24;;;;;;;89.13;55.80;;;;;;;17.49;70.19;101020.33;4970227;59;22187;-82
2021/08/22 00:30:30;;;;;;;102.87;57.03;;;;;;;17.40;70.19;101023.92;4968293;59;21114;-79
2021/08/22 00:35:36;;;;;;;17.33;10.43;;;;;;;17.23;69.50;101030.91;5034733;58;21215;-83
2021/08/22 00:40:42;;;;;;;10.77;6.87;;;;;;;17.10;70.29;101035.28;5047702;58;21153;-81
2021/08/22 00:45:49;;;;;;;14.17;7.97;;;;;;;17.07;70.78;101031.56;5048159;58;21564;-82
2021/08/22 00:50:54;;;;;;;17.50;9.43;;;;;;;16.94;70.45;101035.08;5048279;58;21556;-79
2021/08/22 00:56:03;;;;;;;20.77;9.00;;;;;;;16.84;70.97;101024.91;5047790;58;21170;-82
2021/08/22 01:01:15;;;;;;;14.83;7.83;;;;;;;16.76;70.83;101031.48;5047582;58;21154;-82
2021/08/22 01:06:51;;;;;;;12.33;7.43;;;;;;;16.72;71.25;101028.75;5055787;58;21211;-83
2021/08/22 01:12:02;;;;;;;10.90;4.93;;;;;;;16.73;71.50;101027.77;5073054;58;21223;-80
2021/08/22 01:17:07;;;;;;;8.80;4.60;;;;;;;16.65;71.35;101020.99;5071920;58;21571;-82
2021/08/22 01:22:15;;;;;;;5.00;3.23;;;;;;;16.55;71.11;101014.30;5070688;58;21114;-81
2021/08/22 01:27:22;;;;;;;6.87;3.70;;;;;;;16.32;70.70;101022.31;5071358;58;21205;-81
2021/08/22 01:32:42;;;;;;;7.23;4.77;;;;;;;16.15;71.12;101023.39;5054579;58;21165;-82
2021/08/22 01:37:49;;;;;;;5.17;4.30;;;;;;;16.22;71.87;101020.13;4990736;59;21178;-81
2021/08/22 01:42:56;;;;;;;6.37;4.77;;;;;;;16.25;71.96;101014.02;4990297;59;21204;-83
2021/08/22 01:48:02;;;;;;;5.77;3.43;;;;;;;16.23;71.76;101009.31;4990645;59;21213;-83
2021/08/22 01:53:09;;;;;;;3.27;2.97;;;;;;;16.16;71.70;101006.39;4990040;59;21197;-82
2021/08/22 01:58:15;;;;;;;6.20;3.60;;;;;;;16.04;71.17;101009.37;4990303;59;21555;-84
2021/08/22 02:03:39;;;;;;;3.20;2.90;;;;;;;15.94;71.56;101001.35;4991092;59;21110;-81
2021/08/22 02:08:50;;;;;;;5.03;3.80;;;;;;;15.96;71.95;101001.22;4989995;59;22063;-80
2021/08/22 02:13:57;;;;;;;5.13;4.00;;;;;;;15.92;71.96;101002.47;4991845;59;21654;-83
2021/08/22 02:19:04;;;;;;;7.17;4.47;;;;;;;15.91;71.88;100996.30;4992409;59;21192;-81
2021/08/22 02:24:11;;;;;;;5.37;3.67;;;;;;;15.86;71.95;100990.56;4992343;59;21176;-83
2021/08/22 02:29:17;;;;;;;5.97;4.03;;;;;;;15.78;71.94;100991.25;4992115;59;22152;-84
2021/08/22 02:34:23;;;;;;;8.87;4.40;;;;;;;15.77;71.96;100989.56;5064862;57;21610;-83
2021/08/22 02:39:30;;;;;;;9.70;4.47;;;;;;;15.70;71.57;100984.95;5071606;58;21177;-84
2021/08/22 02:44:36;;;;;;;10.43;5.40;;;;;;;15.66;72.20;100988.38;5072647;58;22088;-83
2021/08/22 02:49:43;;;;;;;7.87;4.30;;;;;;;15.63;72.15;100981.99;5071128;57;21161;-83
2021/08/22 02:54:48;;;;;;;11.23;3.40;;;;;;;15.58;72.71;100976.75;5071595;57;22139;-86
2021/08/22 02:59:54;;;;;;;4.77;2.90;;;;;;;15.53;72.92;100970.46;5072035;57;21516;-81
2021/08/22 03:05:00;;;;;;;5.37;3.00;;;;;;;15.40;72.68;100968.56;5070450;57;21223;-86
2021/08/22 03:10:07;;;;;;;4.90;3.73;;;;;;;15.32;73.14;100965.24;4982450;59;21177;-86
2021/08/22 03:15:13;;;;;;;12.33;4.53;;;;;;;15.38;73.66;100967.86;4981230;59;21213;-81
2021/08/22 03:20:19;;;;;;;6.67;5.77;;;;;;;15.29;73.03;100964.19;4979826;59;21125;-83
2021/08/22 03:25:24;;;;;;;4.87;4.40;;;;;;;15.19;73.72;100958.50;4979145;59;21102;-78
2021/08/22 03:30:30;;;;;;;7.00;4.83;;;;;;;15.06;73.37;100960.94;4979666;59;21125;-83
2021/08/22 03:35:36;;;;;;;8.67;5.53;;;;;;;15.00;73.72;100963.29;5045381;58;21173;-80
2021/08/22 03:40:42;;;;;;;13.10;6.27;;;;;;;15.05;73.89;100969.06;5059440;58;21743;-81
2021/08/22 03:45:47;;;;;;;9.80;6.73;;;;;;;15.04;74.10;100969.55;5059963;58;21232;-82
2021/08/22 03:50:53;;;;;;;13.40;7.10;;;;;;;15.11;74.45;100965.86;5062077;58;21166;-82
2021/08/22 03:55:59;;;;;;;13.10;7.13;;;;;;;15.01;73.85;100966.30;5062529;58;21165;-81
2021/08/22 04:01:05;;;;;;;11.80;5.00;;;;;;;14.91;74.00;100969.45;5062351;58;21170;-80
2021/08/22 04:06:10;;;;;;;8.27;4.73;;;;;;;14.94;74.45;100962.52;5062423;58;22190;-84
2021/08/22 04:11:16;;;;;;;7.33;5.10;;;;;;;15.02;74.54;100963.52;5070849;58;21170;-81
2021/08/22 04:16:22;;;;;;;12.93;4.73;;;;;;;15.03;74.11;100963.02;5070499;58;21203;-83
2021/08/22 04:21:27;;;;;;;60.97;18.20;;;;;;;15.04;74.70;100960.22;5069953;58;21190;-84
2021/08/22 04:26:34;;;;;;;10.27;5.07;;;;;;;15.07;74.42;100965.77;5071649;58;21161;-84
2021/08/22 04:31:40;;;;;;;7.00;4.10;;;;;;;15.07;74.79;100965.28;5070118;58;22265;-78
2021/08/22 04:36:47;;;;;;;10.90;4.83;;;;;;;15.15;74.73;100967.25;4992286;59;21215;-82
2021/08/22 04:41:52;;;;;;;6.00;4.80;;;;;;;15.20;74.57;100962.84;4992842;59;21188;-83
2021/08/22 04:46:58;;;;;;;7.90;5.23;;;;;;;15.26;74.91;100967.64;4992599;59;21172;-83
2021/08/22 04:52:04;;;;;;;13.23;5.30;;;;;;;15.28;74.66;100956.32;4992677;59;21125;-81
2021/08/22 04:57:09;;;;;;;8.83;5.67;;;;;;;15.24;74.90;100965.11;4992770;59;21180;-84
2021/08/22 05:02:15;;;;;;;16.17;5.77;;;;;;;15.23;75.03;100955.43;4992395;59;21226;-78
2021/08/22 05:07:21;;;;;;;8.43;5.70;;;;;;;15.24;75.20;100959.78;4992628;59;21184;-83
2021/08/22 05:12:27;;;;;;;9.80;6.87;;;;;;;15.29;75.21;100962.00;4891506;59;21168;-82
2021/08/22 05:17:33;;;;;;;14.37;6.37;;;;;;;15.32;75.40;100967.06;4882143;61;21195;-82
2021/08/22 05:22:39;;;;;;;15.93;6.50;;;;;;;15.33;75.74;100956.27;4823362;61;21193;-79
2021/08/22 05:27:45;;;;;;;12.03;6.13;;;;;;;15.33;75.96;100963.42;4822930;61;21196;-81
2021/08/22 05:32:51;;;;;;;12.10;5.70;;;;;;;15.39;75.75;100960.22;4843649;60;21518;-83
2021/08/22 05:37:56;;;;;;;7.20;5.70;;;;;;;15.46;75.95;100953.33;4898210;60;21132;-79
2021/08/22 05:43:02;;;;;;;7.13;5.13;;;;;;;15.51;76.16;100951.09;4896684;60;21185;-82
2021/08/22 05:48:08;;;;;;;14.77;6.07;;;;;;;15.52;76.21;100953.27;4895170;60;21221;-79
2021/08/22 05:53:14;;;;;;;7.43;6.50;;;;;;;15.52;76.85;100955.45;4896104;60;21522;-81
2021/08/22 05:58:19;;;;;;;10.10;6.13;;;;;;;15.73;77.24;100951.34;4895934;60;21493;-83
2021/08/22 06:03:25;;;;;;;13.43;6.63;;;;;;;15.88;77.11;100941.92;4895495;60;21757;-79
2021/08/22 06:08:31;;;;;;;9.63;5.70;;;;;;;16.05;77.53;100945.66;4898055;59;21548;-82
2021/08/22 06:13:37;;;;;;;8.67;5.93;;;;;;;16.25;77.02;100952.63;4898551;60;21118;-79
2021/08/22 06:18:43;;;;;;;8.50;5.40;;;;;;;16.39;76.73;100947.31;5072506;58;21170;-82
2021/08/22 06:23:48;;;;;;;8.90;6.00;;;;;;;16.53;76.93;100954.84;5070656;58;21579;-82
2021/08/22 06:28:55;;;;;;;7.33;5.23;;;;;;;16.63;76.82;100945.02;5070881;58;21173;-83
2021/08/22 06:34:00;;;;;;;11.60;5.37;;;;;;;16.80;76.74;100951.41;5070098;58;21496;-81
2021/08/22 06:39:07;;;;;;;6.77;5.03;;;;;;;16.99;76.76;100939.75;5071140;56;25473;-79
2021/08/22 06:44:15;;;;;;;7.13;4.77;;;;;;;17.23;76.76;100941.36;5104457;57;21168;-78
2021/08/22 06:49:21;;;;;;;6.20;4.30;;;;;;;17.34;75.56;100941.63;5090994;57;21173;-81
2021/08/22 06:54:26;;;;;;;6.70;4.37;;;;;;;17.37;74.98;100932.81;4969653;56;51471;-81
2021/08/22 06:59:33;;;;;;;5.13;4.33;;;;;;;17.40;74.51;100924.98;4963650;59;21177;-82
2021/08/22 07:04:39;;;;;;;6.17;4.33;;;;;;;17.49;74.84;100926.73;4948377;59;21643;-79
2021/08/22 07:09:45;;;;;;;10.70;4.20;;;;;;;17.58;74.62;100919.95;4959396;59;21198;-80
2021/08/22 07:14:50;;;;;;;7.50;4.83;;;;;;;17.80;75.06;100925.84;4909407;60;21226;-83
2021/08/22 07:19:56;;;;;;;6.37;4.60;;;;;;;18.13;74.26;100930.44;4909059;60;21141;-80
2021/08/22 07:25:04;;;;;;;5.33;4.70;;;;;;;18.37;73.29;100926.20;4908956;60;21252;-78
2021/08/22 07:30:12;;;;;;;7.40;4.60;;;;;;;18.54;73.48;100920.77;4909290;60;21288;-85
2021/08/22 07:35:20;;;;;;;5.57;4.23;;;;;;;18.77;73.53;100926.94;4910077;60;21204;-83
2021/08/22 07:40:26;;;;;;;5.07;4.53;;;;;;;19.08;73.39;100924.02;4909810;60;21233;-85
2021/08/22 07:45:32;;;;;;;7.47;4.60;;;;;;;19.33;72.41;100917.68;4909110;60;21185;-84
2021/08/22 07:50:38;;;;;;;5.08;4.58;;;;;;;19.54;71.69;100914.55;4879378;60;21197;-83
2021/08/22 07:55:44;;;;;;;10.60;5.47;;;;;;;19.62;70.76;100915.04;4908783;60;21228;-82
2021/08/22 08:00:50;;;;;;;4.87;4.42;;;;;;;19.71;70.80;100912.67;4897238;60;21168;-83
2021/08/22 08:05:56;;;;;;;8.00;5.37;;;;;;;19.83;70.48;100912.69;4882324;60;21181;-85
2021/08/22 08:11:04;;;;;;;6.20;4.42;;;;;;;19.94;69.58;100915.52;4908996;60;21173;-85
2021/08/22 08:16:09;;;;;;;5.33;4.78;;;;;;;20.07;69.12;100920.36;4909499;60;21260;-82
2021/08/22 08:21:16;;;;;;;7.08;4.50;;;;;;;20.15;68.34;100929.77;4909519;60;21538;-82
2021/08/22 08:26:22;;;;;;;12.80;3.95;;;;;;;20.19;68.49;100925.20;4909138;60;21252;-84
2021/08/22 08:31:27;;;;;;;6.40;4.35;;;;;;;20.28;68.56;100922.00;4859864;60;21245;-82
2021/08/22 08:36:33;;;;;;;76.20;26.05;;;;;;;20.50;68.80;100920.44;4834552;61;21250;-83
2021/08/22 08:41:39;;;;;;;5.95;4.47;;;;;;;20.78;68.11;100913.59;4903127;60;21139;-83
2021/08/22 08:47:00;;;;;;;5.40;4.90;;;;;;;21.06;67.34;100909.43;4907636;60;21189;-84
2021/08/22 08:52:29;;;;;;;16.00;5.15;;;;;;;21.26;65.46;100911.16;4909147;60;21188;-83
2021/08/22 08:57:34;;;;;;;4.58;3.92;;;;;;;21.43;65.50;100909.19;4909091;60;21189;-84
2021/08/22 09:02:40;;;;;;;7.60;4.40;;;;;;;21.57;64.77;100905.70;4910060;60;22184;-84
2021/08/22 09:08:12;;;;;;;5.50;4.45;;;;;;;21.74;64.98;100911.28;4909983;60;21215;-83
2021/08/22 09:13:40;;;;;;;8.03;4.67;;;;;;;21.86;64.88;100908.14;4960293;59;21173;-83
2021/08/22 09:19:34;;;;;;;5.85;4.65;;;;;;;22.00;65.22;100900.63;4992255;59;21412;-82
2021/08/22 09:25:33;;;;;;;4.15;3.17;;;;;;;22.15;63.80;100896.62;4991936;59;21179;-79
2021/08/22 09:31:22;;;;;;;4.17;3.85;;;;;;;22.24;63.75;100895.50;4988528;59;21182;-80
2021/08/22 09:37:32;;;;;;;6.42;3.70;;;;;;;22.39;63.82;100900.38;4979130;59;21146;-79
2021/08/22 09:43:13;;;;;;;5.42;4.37;;;;;;;22.57;62.85;100894.61;4989818;59;22068;-82
2021/08/22 09:49:18;;;;;;;5.45;3.85;;;;;;;22.70;63.00;100888.03;4948006;59;21189;-82
2021/08/22 09:54:57;;;;;;;16.82;4.95;;;;;;;22.75;62.39;100891.84;4980479;59;21698;-80
2021/08/22 10:00:42;;;;;;;4.05;3.67;;;;;;;22.91;62.02;100881.37;4992581;59;21126;-79
2021/08/22 10:06:40;;;;;;;5.33;3.65;;;;;;;23.10;62.09;100883.94;4992869;59;21173;-79
2021/08/22 10:12:05;;;;;;;4.80;4.22;;;;;;;23.32;61.29;100880.75;4976460;59;21185;-82
2021/08/22 10:17:24;;;;;;;5.05;3.98;;;;;;;23.52;60.17;100868.82;4822605;61;21212;-81
2021/08/22 10:22:35;;;;;;;6.40;3.75;;;;;;;23.78;60.37;100871.20;4822970;61;21199;-79
2021/08/22 10:27:50;;;;;;;5.17;4.78;;;;;;;23.97;60.65;100875.09;4909638;60;21185;-87
2021/08/22 10:33:06;;;;;;;4.83;4.42;;;;;;;24.09;59.43;100870.80;4884730;60;21132;-84
2021/08/22 10:38:23;;;;;;;8.28;4.70;;;;;;;24.15;58.85;100875.91;4823520;61;21184;-83
2021/08/22 10:43:35;;;;;;;4.70;4.30;;;;;;;24.09;58.59;100874.02;4823266;61;21199;-84
2021/08/22 10:48:43;;;;;;;5.30;4.05;;;;;;;24.02;58.42;100869.07;4823502;61;21132;-86
2021/08/22 10:53:51;;;;;;;7.80;4.80;;;;;;;23.97;58.94;100871.04;4893052;59;21173;-85
2021/08/22 10:59:10;;;;;;;10.08;4.15;;;;;;;23.96;59.20;100872.06;4851513;60;21230;-87
2021/08/22 11:04:26;;;;;;;6.17;3.87;;;;;;;24.00;59.85;100869.78;4909386;60;21138;-82
2021/08/22 11:09:46;;;;;;;11.08;5.17;;;;;;;24.21;59.88;100861.61;4904640;60;21122;-89
2021/08/22 11:14:51;;;;;;;11.38;4.42;;;;;;;24.45;60.34;100850.31;4902605;59;21445;-85
2021/08/22 11:20:16;;;;;;;10.13;4.90;;;;;;;24.83;59.95;100848.48;4900018;59;21233;-85
2021/08/22 11:25:26;;;;;;;6.35;4.97;;;;;;;25.12;58.22;100838.68;4899991;59;21174;-84
2021/08/22 11:30:32;;;;;;;9.68;4.92;;;;;;;25.27;57.02;100834.42;4900027;60;21283;-84
2021/08/22 11:35:41;;;;;;;6.05;4.90;;;;;;;25.33;56.61;100829.55;4882779;60;21195;-83
2021/08/22 11:40:47;;;;;;;4.67;4.10;;;;;;;25.28;55.16;100830.68;4871657;60;21200;-86
2021/08/22 11:45:53;;;;;;;6.85;4.65;;;;;;;25.38;55.68;100831.09;4859637;59;21240;-85
2021/08/22 11:51:03;;;;;;;8.95;4.55;;;;;;;25.53;55.87;100833.59;4885392;60;21204;-85
2021/08/22 11:56:09;;;;;;;14.15;4.87;;;;;;;25.55;55.30;100824.73;4885960;60;21185;-84
2021/08/22 12:01:20;;;;;;;9.43;5.65;;;;;;;25.59;55.06;100830.05;4859527;59;22090;-84
2021/08/22 12:06:28;;;;;;;5.00;4.50;;;;;;;25.64;55.05;100820.81;4859892;59;21246;-85
2021/08/22 12:11:34;;;;;;;6.05;5.47;;;;;;;25.78;54.62;100820.27;4859259;59;21197;-80
2021/08/22 12:16:40;;;;;;;5.65;5.05;;;;;;;25.84;54.83;100818.89;4897386;60;21156;-82
2021/08/22 12:21:47;;;;;;;8.63;5.55;;;;;;;25.93;54.59;100819.00;4896215;60;22134;-81
2021/08/22 12:27:01;;;;;;;8.88;5.35;;;;;;;26.02;54.84;100805.20;4903496;60;21204;-80
2021/08/22 12:32:22;;;;;;;5.55;4.60;;;;;;;26.21;53.51;100801.59;4904564;60;21214;-83
2021/08/22 12:37:23;;;;;;;7.40;4.92;;;;;;;26.32;53.64;100796.88;4895591;60;22291;-86
2021/08/22 12:42:29;;;;;;;11.50;4.78;;;;;;;26.39;53.42;100795.51;4896059;59;21213;-82
2021/08/22 12:47:35;;;;;;;6.55;4.35;;;;;;;26.38;52.67;100791.97;4898019;59;21192;-84
2021/08/22 12:52:43;;;;;;;8.15;4.60;;;;;;;26.40;53.08;100783.61;4931477;59;21172;-88
2021/08/22 12:57:49;;;;;;;5.30;4.33;;;;;;;26.40;52.74;100782.26;4931585;59;21234;-84
2021/08/22 13:02:54;;;;;;;5.87;4.53;;;;;;;26.26;51.48;100780.10;4932118;59;21692;-88
2021/08/22 13:08:00;;;;;;;5.17;3.95;;;;;;;26.14;52.56;100777.20;4932618;59;21607;-87
2021/08/22 13:13:06;;;;;;;5.60;3.95;;;;;;;26.12;53.11;100767.65;4930618;59;21189;-85
2021/08/22 13:18:12;;;;;;;6.65;3.87;;;;;;;26.12;52.83;100770.36;4900317;59;21564;-85
2021/08/22 13:23:18;;;;;;;6.03;4.05;;;;;;;26.08;52.28;100763.70;4900008;59;22224;-86
2021/08/22 13:28:24;;;;;;;5.60;4.90;;;;;;;25.95;51.44;100763.74;4881117;59;21192;-86
2021/08/22 13:33:29;;;;;;;6.78;4.72;;;;;;;25.81;52.30;100764.31;4862971;60;21193;-87
2021/08/22 13:38:36;;;;;;;6.47;4.65;;;;;;;25.75;52.56;100761.08;4859269;60;21184;-87
2021/08/22 13:43:42;;;;;;;7.87;4.80;;;;;;;25.71;52.63;100755.25;4857563;60;21735;-84
2021/08/22 13:48:48;;;;;;;6.08;4.20;;;;;;;25.71;52.60;100752.54;4820572;61;21627;-85
2021/08/22 13:53:54;;;;;;;9.50;4.50;;;;;;;25.74;52.99;100750.77;4841179;61;21253;-85
2021/08/22 13:59:01;;;;;;;7.87;6.58;;;;;;;25.76;52.72;100744.62;4820613;61;21242;-89
2021/08/22 14:04:07;;;;;;;5.95;4.55;;;;;;;25.75;52.35;100738.88;4820529;61;21250;-83
2021/08/22 14:09:13;;;;;;;4.90;4.50;;;;;;;25.76;52.10;100735.66;4841241;61;21666;-86
2021/08/22 14:14:18;;;;;;;5.42;4.33;;;;;;;25.70;51.75;100724.30;4847410;59;21191;-85
2021/08/22 14:19:24;;;;;;;5.90;4.15;;;;;;;25.67;52.42;100727.42;4898070;59;21122;-81
2021/08/22 14:24:30;;;;;;;4.72;4.30;;;;;;;25.64;52.18;100719.75;4894432;59;21207;-82
2021/08/22 14:29:35;;;;;;;9.95;4.70;;;;;;;25.61;52.12;100720.14;4880335;59;21189;-81
2021/08/22 14:34:42;;;;;;;4.83;4.42;;;;;;;25.46;52.09;100719.86;4891709;60;21201;-82
2021/08/22 14:39:47;;;;;;;6.75;4.30;;;;;;;25.42;51.97;100721.31;4879023;60;22206;-81
2021/08/22 14:44:55;;;;;;;7.87;4.65;;;;;;;25.39;52.36;100715.48;4898795;59;22101;-83
2021/08/22 14:50:01;;;;;;;5.20;4.67;;;;;;;25.37;52.82;100713.50;4900249;60;21196;-83
2021/08/22 14:55:07;;;;;;;9.63;4.92;;;;;;;25.33;52.75;100715.83;4937328;57;77373;-85
2021/08/22 15:00:15;;;;;;;11.18;4.85;;;;;;;25.34;53.13;100711.24;5069403;57;22073;-85
2021/08/22 15:05:22;;;;;;;5.45;4.70;;;;;;;25.33;53.46;100711.77;5041585;57;22128;-84
2021/08/22 15:10:29;;;;;;;9.33;4.28;;;;;;;25.30;53.48;100708.12;5085213;57;21210;-85
2021/08/22 15:15:35;;;;;;;8.33;4.90;;;;;;;25.27;53.66;100704.47;5079676;58;21121;-85
2021/08/22 15:20:41;;;;;;;5.35;4.33;;;;;;;25.24;53.66;100704.88;5067225;58;21204;-85
2021/08/22 15:25:46;;;;;;;12.00;5.80;;;;;;;25.18;53.71;100701.68;5067303;58;21229;-84
2021/08/22 15:30:53;;;;;;;7.08;6.28;;;;;;;25.14;53.84;100703.97;5067554;58;21221;-85
2021/08/22 15:35:59;;;;;;;10.35;5.20;;;;;;;25.11;54.10;100698.97;5077195;58;21169;-85
2021/08/22 15:41:05;;;;;;;11.30;5.22;;;;;;;25.09;54.21;100701.05;5078398;58;21253;-85
2021/08/22 15:46:12;;;;;;;10.32;5.30;;;;;;;25.05;54.50;100694.41;5078162;58;21177;-85
2021/08/22 15:51:20;;;;;;;14.38;6.70;;;;;;;25.01;54.59;100695.86;5078176;58;21173;-84
2021/08/22 15:56:25;;;;;;;19.10;8.43;;;;;;;24.97;54.66;100688.36;5078265;58;21118;-85
2021/08/22 16:01:31;;;;;;;20.95;5.70;;;;;;;24.95;55.00;100684.51;5078082;58;21169;-84
2021/08/22 16:06:36;;;;;;;6.50;5.83;;;;;;;24.91;54.99;100684.57;5078119;58;22157;-84
2021/08/22 16:11:42;;;;;;;6.42;5.35;;;;;;;24.86;55.02;100682.52;5078146;58;21111;-85
2021/08/22 16:16:48;;;;;;;5.15;4.65;;;;;;;24.81;55.12;100679.59;5078094;58;21197;-85
2021/08/22 16:21:55;;;;;;;4.78;4.30;;;;;;;24.75;55.23;100681.76;5078162;57;21174;-85
2021/08/22 16:27:00;;;;;;;8.70;5.97;;;;;;;24.71;55.40;100686.46;5078047;58;21175;-84
2021/08/22 16:32:08;;;;;;;5.80;4.40;;;;;;;24.66;55.63;100688.42;5078100;58;21176;-84
2021/08/22 16:37:15;;;;;;;9.25;4.80;;;;;;;24.60;55.50;100692.46;5078365;58;21222;-84
2021/08/22 16:42:20;;;;;;;5.53;4.83;;;;;;;24.52;55.75;100692.16;5078943;58;21140;-85
2021/08/22 16:47:26;;;;;;;7.83;4.55;;;;;;;24.42;55.54;100690.38;5078990;58;21149;-83
2021/08/22 16:52:34;;;;;;;5.95;5.25;;;;;;;24.36;55.52;100697.95;5079205;58;21149;-85
2021/08/22 16:57:40;;;;;;;7.00;6.28;;;;;;;24.31;55.44;100699.90;5078928;58;21149;-85
2021/08/22 17:02:45;;;;;;;7.72;5.30;;;;;;;24.26;55.81;100705.63;5078695;57;21640;-85
2021/08/22 17:07:51;;;;;;;6.20;5.58;;;;;;;24.16;57.95;100715.41;5065839;58;21205;-85
2021/08/22 17:12:57;;;;;;;9.80;6.25;;;;;;;23.91;59.22;100721.87;5078621;58;21211;-85
2021/08/22 17:18:09;;;;;;;8.93;6.40;;;;;;;23.73;60.42;100738.61;5081660;57;21181;-85
2021/08/22 17:23:14;;;;;;;;;;;;;;;23.46;61.73;100747.55;5088570;58;21150;-84
2021/08/22 17:28:20;;;;;;;6.60;5.72;;;;;;;23.17;64.80;100756.69;5084727;58;20169;-85
2021/08/22 17:33:26;;;;;;;8.88;6.70;;;;;;;22.91;64.77;100774.83;5085302;57;21240;-84
2021/08/22 17:38:32;;;;;;;11.88;8.95;;;;;;;22.76;65.41;100785.65;5086085;57;21201;-85
2021/08/22 17:43:37;;;;;;;6.92;6.15;;;;;;;22.56;66.01;100789.14;5086364;57;21210;-83
2021/08/22 17:48:46;;;;;;;8.38;6.95;;;;;;;22.22;67.82;100800.55;5086088;57;21181;-84
2021/08/22 17:53:52;;;;;;;9.53;7.58;;;;;;;21.80;68.94;100810.61;5086172;57;21216;-84
2021/08/22 17:58:58;;;;;;;8.33;7.25;;;;;;;21.64;69.51;100802.20;5084750;57;21174;-83
2021/08/22 18:04:04;;;;;;;8.05;6.87;;;;;;;21.76;70.65;100801.55;5067884;57;21169;-83
2021/08/22 18:09:09;;;;;;;11.80;7.45;;;;;;;21.84;71.20;100806.03;5085384;57;21193;-83
2021/08/22 18:14:16;;;;;;;21.50;12.05;;;;;;;21.92;71.25;100797.84;5092423;57;21485;-84
2021/08/22 18:19:22;;;;;;;23.12;15.23;;;;;;;21.98;71.66;100793.58;5122993;57;21214;-84
2021/08/22 18:24:27;;;;;;;15.18;12.40;;;;;;;22.02;72.08;100804.31;5113272;57;21520;-84
2021/08/22 18:29:35;;;;;;;17.95;10.65;;;;;;;22.01;72.16;100806.69;5116082;57;21634;-83
2021/08/22 18:34:40;;;;;;;14.83;10.08;;;;;;;22.04;72.56;100809.84;5120786;57;21294;-85
2021/08/22 18:39:46;;;;;;;11.83;9.35;;;;;;;21.98;72.57;100824.55;5122004;57;21188;-84
2021/08/22 18:44:52;;;;;;;15.15;9.58;;;;;;;21.87;72.59;100830.37;5109720;57;21087;-84
2021/08/22 18:49:58;;;;;;;13.25;9.03;;;;;;;21.70;73.12;100827.85;5130512;57;21177;-84
2021/08/22 18:55:05;;;;;;;12.25;8.13;;;;;;;21.62;73.46;100831.98;5160644;57;21157;-84
2021/08/22 19:00:12;;;;;;;12.60;8.58;;;;;;;21.49;73.79;100835.81;5160472;57;21201;-83
2021/08/22 19:05:20;;;;;;;9.45;8.03;;;;;;;21.29;73.93;100842.20;5160512;57;21135;-84
2021/08/22 19:10:26;;;;;;;17.05;9.60;;;;;;;21.16;74.78;100851.86;5160512;57;21202;-84
2021/08/22 19:15:31;;;;;;;15.13;13.55;;;;;;;21.03;75.13;100853.80;5106567;57;21190;-83
2021/08/22 19:20:39;;;;;;;10.68;7.45;;;;;;;20.98;75.62;100860.22;5123353;57;21166;-85
2021/08/22 19:25:45;;;;;;;12.35;8.50;;;;;;;21.03;76.08;100855.16;5112067;57;21208;-85
2021/08/22 19:30:51;;;;;;;10.00;7.40;;;;;;;20.83;76.04;100851.23;5127807;57;21185;-83
2021/08/22 19:36:00;;;;;;;7.70;6.37;;;;;;;20.65;76.75;100840.75;5089708;57;21650;-83
2021/08/22 19:41:04;;;;;;;8.98;7.08;;;;;;;20.45;77.37;100839.03;5082281;57;21193;-83
2021/08/22 19:46:10;;;;;;;9.33;7.85;;;;;;;20.33;78.01;100837.18;5109488;57;21158;-84
2021/08/22 19:51:15;;;;;;;8.95;6.35;;;;;;;20.21;79.21;100840.42;5003666;57;64264;-84
2021/08/22 19:56:21;;;;;;;10.05;8.28;;;;;;;20.15;79.40;100841.14;4822515;61;21195;-84
2021/08/22 20:01:27;;;;;;;7.97;6.78;;;;;;;20.05;79.58;100835.95;4820300;61;21231;-82
2021/08/22 20:06:32;;;;;;;8.15;6.85;;;;;;;19.98;79.89;100837.16;4820106;61;21244;-80
2021/08/22 20:11:38;;;;;;;7.78;6.87;;;;;;;19.92;79.90;100838.34;4820023;61;22086;-80
2021/08/22 20:16:44;;;;;;;7.12;5.47;;;;;;;19.84;80.22;100834.34;4819550;60;21719;-80
2021/08/22 20:21:50;;;;;;;8.93;5.65;;;;;;;19.82;80.72;100835.86;4822895;60;21197;-79
2021/08/22 20:26:55;;;;;;;7.30;5.35;;;;;;;19.71;80.40;100825.45;4822936;61;21193;-80
2021/08/22 20:32:01;;;;;;;9.48;5.90;;;;;;;19.56;80.86;100819.11;4824418;61;21149;-80
2021/08/22 20:37:07;;;;;;;11.20;6.60;;;;;;;19.43;80.97;100822.28;4836750;61;21141;-80
2021/08/22 20:42:13;;;;;;;5.90;5.30;;;;;;;19.30;81.27;100813.41;4836636;61;21678;-80
2021/08/22 20:47:19;;;;;;;6.10;3.58;;;;;;;19.27;81.72;100817.76;4803002;58;70113;-82
2021/08/22 20:52:26;;;;;;;5.03;4.55;;;;;;;19.24;81.61;100820.80;4763232;62;21245;-81
2021/08/22 20:57:32;;;;;;;8.35;4.80;;;;;;;19.16;81.59;100829.33;4682730;63;21244;-82
2021/08/22 21:02:42;;;;;;;9.20;5.25;;;;;;;19.11;81.75;100834.34;4769689;62;21129;-83
2021/08/22 21:07:48;;;;;;;6.75;4.72;;;;;;;18.96;82.14;100839.52;4810409;56;38890;-83
2021/08/22 21:12:54;;;;;;;4.40;3.80;;;;;;;18.98;82.25;100853.60;4967954;59;21156;-82
2021/08/22 21:18:00;;;;;;;3.67;3.37;;;;;;;18.90;82.39;100853.60;4963534;59;21126;-81
2021/08/22 21:23:06;;;;;;;5.70;4.35;;;;;;;18.80;82.53;100852.89;4966629;59;22145;-82
2021/08/22 21:28:12;;;;;;;4.50;3.92;;;;;;;18.73;82.66;100858.58;4967034;59;22168;-82
2021/08/22 21:33:18;;;;;;;5.40;3.85;;;;;;;18.69;82.40;100863.92;4951859;59;21168;-83
2021/08/22 21:38:24;;;;;;;5.75;4.55;;;;;;;18.68;82.73;100870.28;4944984;59;21229;-82
2021/08/22 21:43:30;;;;;;;8.68;4.50;;;;;;;18.66;82.81;100868.26;4967274;59;21279;-80
2021/08/22 21:48:36;;;;;;;4.30;3.90;;;;;;;18.57;82.53;100870.05;4967160;59;21613;-82
2021/08/22 21:53:42;;;;;;;8.90;4.25;;;;;;;18.57;82.90;100866.04;4967251;59;21131;-83
2021/08/22 21:58:48;;;;;;;5.85;4.15;;;;;;;18.50;83.02;100860.98;4967092;59;21569;-81
2021/08/22 22:03:53;;;;;;;11.65;4.60;;;;;;;18.45;83.20;100860.64;4967189;59;21653;-80
2021/08/22 22:08:59;;;;;;;6.00;4.20;;;;;;;18.40;83.48;100857.09;4967245;59;21239;-80
2021/08/22 22:14:04;;;;;;;2.80;2.27;;;;;;;18.43;83.25;100851.92;4967378;59;21641;-81
2021/08/22 22:19:10;;;;;;;5.03;4.53;;;;;;;18.32;83.85;100836.16;4964809;59;21276;-81
2021/08/22 22:24:16;;;;;;;4.55;3.70;;;;;;;18.21;84.16;100822.03;4904006;60;21187;-82
2021/08/22 22:29:22;;;;;;;4.80;3.58;;;;;;;18.06;83.68;100835.69;4903684;60;21202;-81
2021/08/22 22:34:27;;;;;;;4.37;3.97;;;;;;;17.88;84.01;100845.11;4937780;60;21601;-81
2021/08/22 22:39:33;;;;;;;4.57;3.83;;;;;;;17.84;84.42;100846.45;4960853;60;21553;-83
2021/08/22 22:44:39;;;;;;;7.73;3.63;;;;;;;17.88;84.20;100854.98;4960934;60;21297;-82
2021/08/22 22:49:45;;;;;;;6.87;3.57;;;;;;;17.83;83.91;100857.31;4960766;60;21210;-81
2021/08/22 22:54:51;;;;;;;6.60;4.25;;;;;;;17.86;84.22;100855.16;4960823;60;22093;-82
2021/08/22 22:59:57;;;;;;;7.00;3.60;;;;;;;17.92;84.04;100867.05;4960842;60;21585;-81
2021/08/22 23:05:03;;;;;;;4.60;3.03;;;;;;;18.02;84.01;100859.78;4960829;60;21704;-82
2021/08/22 23:10:09;;;;;;;4.40;3.62;;;;;;;18.04;83.85;100858.25;4960738;60;21195;-81
2021/08/22 23:15:15;;;;;;;3.20;2.90;;;;;;;18.06;84.08;100846.39;4960967;60;21222;-81
2021/08/22 23:20:20;;;;;;;3.17;2.97;;;;;;;18.10;83.93;100844.24;4963777;59;21242;-82
2021/08/22 23:25:26;;;;;;;4.15;3.42;;;;;;;18.07;83.68;100844.55;4981454;59;21557;-81
2021/08/22 23:30:31;;;;;;;4.50;3.17;;;;;;;17.97;83.39;100847.86;4981663;59;21195;-83
2021/08/22 23:35:37;;;;;;;10.80;3.50;;;;;;;18.00;84.00;100849.72;4934729;59;21802;-84
2021/08/22 23:40:42;;;;;;;5.33;3.50;;;;;;;18.00;83.82;100842.19;4925051;60;21240;-84
2021/08/22 23:45:48;;;;;;;5.13;3.33;;;;;;;17.99;83.95;100841.35;4924729;60;22168;-81
2021/08/22 23:50:53;;;;;;;3.97;3.00;;;;;;;17.99;84.04;100841.84;4924805;60;21239;-85